createdAt,value
2018-06-19T00:00:23.909Z,1.90
2018-06-19T00:02:52.622Z,2.20
2018-06-19T00:05:21.324Z,2.00
2018-06-19T00:07:50.533Z,2.03
2018-06-19T00:10:19.248Z,1.67
2018-06-19T00:12:47.958Z,2.00
2018-06-19T00:15:16.715Z,2.13
2018-06-19T00:17:52.417Z,1.87
2018-06-19T00:20:21.170Z,1.80
2018-06-19T00:22:49.894Z,2.47
2018-06-19T00:25:18.669Z,2.27
2018-06-19T00:27:47.387Z,2.30
2018-06-19T00:30:19.333Z,2.10
2018-06-19T00:32:48.081Z,1.90
2018-06-19T00:35:16.813Z,2.03
2018-06-19T00:37:45.581Z,1.90
2018-06-19T00:40:14.309Z,2.27
2018-06-19T00:42:43.059Z,2.17
2018-06-19T00:45:11.836Z,2.77
2018-06-19T00:47:40.813Z,2.23
2018-06-19T00:50:09.329Z,2.30
2018-06-19T00:52:37.973Z,3.20
2018-06-19T00:55:06.688Z,2.63
2018-06-19T00:57:35.429Z,2.40
2018-06-19T01:00:04.154Z,2.00
2018-06-19T01:02:32.866Z,2.50
2018-06-19T01:05:01.626Z,2.20
2018-06-19T01:07:30.352Z,2.07
2018-06-19T01:09:59.070Z,2.23
2018-06-19T01:12:27.826Z,2.30
2018-06-19T01:14:56.553Z,2.17
2018-06-19T01:17:25.282Z,2.03
2018-06-19T01:19:54.068Z,2.20
2018-06-19T01:22:22.789Z,1.73
2018-06-19T01:24:51.517Z,1.77
2018-06-19T01:27:20.254Z,2.30
2018-06-19T01:29:49.154Z,2.10
2018-06-19T01:32:18.778Z,2.27
2018-06-19T01:34:47.540Z,2.77
2018-06-19T01:37:16.277Z,2.40
2018-06-19T01:39:45.213Z,2.30
2018-06-19T01:42:13.925Z,3.13
2018-06-19T01:44:42.686Z,2.10
2018-06-19T01:47:11.563Z,2.50
2018-06-19T01:49:40.308Z,2.27
2018-06-19T01:52:09.109Z,2.03
2018-06-19T01:54:37.828Z,2.53
2018-06-19T01:57:14.177Z,2.80
2018-06-19T01:59:42.916Z,2.23
2018-06-19T02:02:11.782Z,2.63
2018-06-19T02:04:40.525Z,2.70
2018-06-19T02:07:09.236Z,2.57
2018-06-19T02:09:37.973Z,2.60
2018-06-19T02:12:06.717Z,2.90
2018-06-19T02:14:35.421Z,2.43
2018-06-19T02:17:06.137Z,2.73
2018-06-19T02:19:34.858Z,2.77
2018-06-19T02:22:07.762Z,2.23
2018-06-19T02:24:36.502Z,2.67
2018-06-19T02:27:05.437Z,2.93
2018-06-19T02:29:34.217Z,2.60
2018-06-19T02:32:02.954Z,2.70
2018-06-19T02:34:31.472Z,2.73
2018-06-19T02:37:00.141Z,2.90
2018-06-19T02:39:28.881Z,3.27
2018-06-19T02:41:57.610Z,2.90
2018-06-19T02:44:26.357Z,3.00
2018-06-19T02:46:55.077Z,3.17
2018-06-19T02:49:23.825Z,3.43
2018-06-19T02:51:52.578Z,3.17
2018-06-19T02:54:21.341Z,3.13
2018-06-19T02:56:50.072Z,3.07
2018-06-19T02:59:18.810Z,2.77
2018-06-19T03:01:47.348Z,3.33
2018-06-19T03:04:15.982Z,3.10
2018-06-19T03:06:51.726Z,3.33
2018-06-19T03:09:20.461Z,3.43
2018-06-19T03:11:49.176Z,3.70
2018-06-19T03:14:17.929Z,2.87
2018-06-19T03:16:46.637Z,2.63
2018-06-19T03:19:15.361Z,3.60
2018-06-19T03:21:44.125Z,3.20
2018-06-19T03:24:12.838Z,2.90
2018-06-19T03:26:46.509Z,2.80
2018-06-19T03:29:15.225Z,3.30
2018-06-19T03:31:43.942Z,3.40
2018-06-19T03:34:12.719Z,3.17
2018-06-19T03:36:41.473Z,3.30
2018-06-19T03:39:11.505Z,3.43
2018-06-19T03:41:40.854Z,2.93
2018-06-19T03:44:09.587Z,3.30
2018-06-19T03:46:38.647Z,3.17
2018-06-19T03:49:07.370Z,2.93
2018-06-19T03:51:46.995Z,3.23
2018-06-19T03:54:15.705Z,2.87
2018-06-19T03:56:44.473Z,3.37
2018-06-19T03:59:13.185Z,3.37
2018-06-19T04:01:41.921Z,3.60
2018-06-19T04:04:10.659Z,3.60
2018-06-19T04:06:39.374Z,3.20
2018-06-19T04:09:08.805Z,3.37
2018-06-19T04:11:37.802Z,3.50
2018-06-19T04:14:06.588Z,3.80
2018-06-19T04:16:35.285Z,2.73
2018-06-19T04:19:03.997Z,3.23
2018-06-19T04:21:32.744Z,3.37
2018-06-19T04:24:03.500Z,3.30
2018-06-19T04:26:32.269Z,4.27
2018-06-19T04:29:00.993Z,4.10
2018-06-19T04:31:29.766Z,3.57
2018-06-19T04:33:58.550Z,3.80
2018-06-19T04:36:27.289Z,3.50
2018-06-19T04:38:55.808Z,3.67
2018-06-19T04:41:24.441Z,3.57
2018-06-19T04:43:53.177Z,3.53
2018-06-19T04:46:21.900Z,3.67
2018-06-19T04:48:56.285Z,3.73
2018-06-19T04:51:25.014Z,4.07
2018-06-19T04:53:53.745Z,3.67
2018-06-19T04:56:22.461Z,3.70
2018-06-19T04:58:51.206Z,3.87
2018-06-19T05:01:19.965Z,3.47
2018-06-19T05:03:48.776Z,3.50
2018-06-19T05:06:17.481Z,3.60
2018-06-19T05:08:46.213Z,3.63
2018-06-19T05:11:14.956Z,3.40
2018-06-19T05:13:43.701Z,3.03
2018-06-19T05:16:12.417Z,3.13
2018-06-19T05:18:41.213Z,4.03
2018-06-19T05:21:09.854Z,3.33
2018-06-19T05:23:38.597Z,3.70
2018-06-19T05:26:07.339Z,3.73
2018-06-19T05:28:36.077Z,3.60
2018-06-19T05:31:04.888Z,3.87
2018-06-19T05:33:33.664Z,3.70
2018-06-19T05:36:02.402Z,3.30
2018-06-19T05:38:31.472Z,3.50
2018-06-19T05:41:00.214Z,3.67
2018-06-19T05:43:28.968Z,3.10
2018-06-19T05:45:57.685Z,3.10
2018-06-19T05:48:26.451Z,2.80
2018-06-19T05:50:55.258Z,2.73
2018-06-19T05:53:23.989Z,3.57
2018-06-19T05:55:52.759Z,2.73
2018-06-19T05:58:21.469Z,3.20
2018-06-19T06:00:50.244Z,3.50
2018-06-19T06:03:28.873Z,3.57
2018-06-19T06:05:57.884Z,3.10
2018-06-19T06:08:26.541Z,3.10
2018-06-19T06:10:55.301Z,2.73
2018-06-19T06:13:24.014Z,2.80
2018-06-19T06:15:55.958Z,2.80
2018-06-19T06:18:32.177Z,3.73
2018-06-19T06:21:16.566Z,3.20
2018-06-19T06:23:45.313Z,2.63
2018-06-19T06:26:14.049Z,2.30
2018-06-19T06:28:42.821Z,2.70
2018-06-19T06:31:14.606Z,2.83
2018-06-19T06:33:47.428Z,2.93
2018-06-19T06:36:16.207Z,2.50
2018-06-19T06:38:44.692Z,2.90
2018-06-19T06:41:13.518Z,2.50
2018-06-19T06:43:42.288Z,2.97
2018-06-19T06:46:11.001Z,2.50
2018-06-19T06:48:39.761Z,3.00
2018-06-19T06:51:08.654Z,2.57
2018-06-19T06:53:37.537Z,2.70
2018-06-19T06:56:06.285Z,2.87
2018-06-19T06:58:35.216Z,3.33
2018-06-19T07:01:04.110Z,2.60
2018-06-19T07:03:32.898Z,2.43
2018-06-19T07:06:01.642Z,3.10
2018-06-19T07:08:30.349Z,2.50
2018-06-19T07:10:59.105Z,2.53
2018-06-19T07:13:28.145Z,3.10
2018-06-19T07:15:56.903Z,2.80
2018-06-19T07:18:25.630Z,2.50
2018-06-19T07:20:54.343Z,2.67
2018-06-19T07:23:23.077Z,2.40
2018-06-19T07:25:51.819Z,2.33
2018-06-19T07:28:27.494Z,2.77
2018-06-19T07:31:02.963Z,3.13
2018-06-19T07:33:31.681Z,2.93
2018-06-19T07:36:01.526Z,3.20
2018-06-19T07:38:31.453Z,3.00
2018-06-19T07:41:01.321Z,3.00
2018-06-19T07:43:38.981Z,3.23
2018-06-19T07:46:07.917Z,2.70
2018-06-19T07:48:54.377Z,3.67
2018-06-19T07:51:23.113Z,2.47
2018-06-19T07:53:51.837Z,2.60
2018-06-19T07:56:20.581Z,2.30
2018-06-19T07:58:49.322Z,2.60
2018-06-19T08:01:24.029Z,2.63
2018-06-19T08:03:53.188Z,2.57
2018-06-19T08:06:21.867Z,2.17
2018-06-19T08:08:50.632Z,2.50
2018-06-19T08:11:19.348Z,2.23
2018-06-19T08:13:48.078Z,2.20
2018-06-19T08:16:16.828Z,2.30
2018-06-19T08:18:45.565Z,2.03
2018-06-19T08:21:14.277Z,2.27
2018-06-19T08:23:50.912Z,2.70
2018-06-19T08:26:19.661Z,2.07
2018-06-19T08:28:48.449Z,2.67
2018-06-19T08:31:17.185Z,2.40
2018-06-19T08:33:45.953Z,2.53
2018-06-19T08:36:14.727Z,2.20
2018-06-19T08:38:47.560Z,2.17
2018-06-19T08:41:16.317Z,2.30
2018-06-19T08:43:45.036Z,2.10
2018-06-19T08:46:29.353Z,2.00
2018-06-19T08:48:58.069Z,2.10
2018-06-19T08:51:26.841Z,2.70
2018-06-19T08:53:59.609Z,2.53
2018-06-19T08:56:28.354Z,2.23
2018-06-19T08:59:09.046Z,2.87
2018-06-19T09:01:37.782Z,2.80
2018-06-19T09:04:06.521Z,2.30
2018-06-19T09:06:37.513Z,2.90
2018-06-19T09:09:08.012Z,2.27
2018-06-19T09:11:36.721Z,2.80
2018-06-19T09:14:05.493Z,2.60
2018-06-19T09:16:43.038Z,2.40
2018-06-19T09:19:11.750Z,2.30
2018-06-19T09:21:40.469Z,2.20
2018-06-19T09:24:09.197Z,2.10
2018-06-19T09:26:37.921Z,2.20
2018-06-19T09:29:06.718Z,2.07
2018-06-19T09:31:35.478Z,2.30
2018-06-19T09:34:04.153Z,2.20
2018-06-19T09:36:49.475Z,2.20
2018-06-19T09:39:18.197Z,2.20
2018-06-19T09:41:47.023Z,1.90
2018-06-19T09:44:22.573Z,1.77
2018-06-19T09:46:51.301Z,2.07
2018-06-19T09:49:35.781Z,1.90
2018-06-19T09:52:04.560Z,2.10
2018-06-19T09:54:33.299Z,2.43
2018-06-19T09:57:02.070Z,1.93
2018-06-19T09:59:30.810Z,1.80
2018-06-19T10:01:59.533Z,2.00
2018-06-19T10:04:29.526Z,1.83
2018-06-19T10:06:58.273Z,2.40
2018-06-19T10:09:38.378Z,2.20
2018-06-19T10:12:07.181Z,2.27
2018-06-19T10:14:35.821Z,2.00
2018-06-19T10:17:10.246Z,2.00
2018-06-19T10:19:39.006Z,2.20
2018-06-19T10:22:07.737Z,1.93
2018-06-19T10:24:36.514Z,1.70
2018-06-19T10:27:06.445Z,2.30
2018-06-19T10:29:35.229Z,2.00
2018-06-19T10:32:04.038Z,1.90
2018-06-19T10:34:32.789Z,2.10
2018-06-19T10:37:01.498Z,2.00
2018-06-19T10:39:30.236Z,2.13
2018-06-19T10:41:58.977Z,2.23
2018-06-19T10:44:39.205Z,2.10
2018-06-19T10:47:07.937Z,1.77
2018-06-19T10:49:36.670Z,2.00
2018-06-19T10:52:05.606Z,1.70
2018-06-19T10:54:34.377Z,2.47
2018-06-19T10:57:16.601Z,2.30
2018-06-19T10:59:45.440Z,2.40
2018-06-19T11:02:14.193Z,2.27
2018-06-19T11:04:42.918Z,2.80
2018-06-19T11:07:11.694Z,2.53
2018-06-19T11:09:40.421Z,1.93
2018-06-19T11:12:09.174Z,3.03
2018-06-19T11:14:37.902Z,2.83
2018-06-19T11:17:06.654Z,2.50
2018-06-19T11:19:35.389Z,1.93
2018-06-19T11:22:04.105Z,2.03
2018-06-19T11:24:36.864Z,2.20
2018-06-19T11:27:05.605Z,2.07
2018-06-19T11:29:34.321Z,1.90
2018-06-19T11:32:03.152Z,2.00
2018-06-19T11:34:31.906Z,1.90
2018-06-19T11:37:00.821Z,1.77
2018-06-19T11:39:29.605Z,2.50
2018-06-19T11:41:58.373Z,1.80
2018-06-19T11:44:27.150Z,1.93
2018-06-19T11:46:55.907Z,2.10
2018-06-19T11:49:24.653Z,2.13
2018-06-19T11:51:53.397Z,1.87
2018-06-19T11:54:22.161Z,2.27
2018-06-19T11:56:50.961Z,1.87
2018-06-19T11:59:19.649Z,1.93
2018-06-19T12:01:48.427Z,2.07
2018-06-19T12:04:17.132Z,1.63
2018-06-19T12:06:54.806Z,1.87
2018-06-19T12:09:23.539Z,1.40
2018-06-19T12:11:52.266Z,1.70
2018-06-19T12:14:21.137Z,1.77
2018-06-19T12:16:49.865Z,1.40
2018-06-19T12:19:39.637Z,1.70
2018-06-19T12:22:09.613Z,2.17
2018-06-19T12:24:38.401Z,1.63
2018-06-19T12:27:07.129Z,2.90
2018-06-19T12:29:35.905Z,1.80
2018-06-19T12:32:04.594Z,1.67
2018-06-19T12:34:33.350Z,1.40
2018-06-19T12:37:03.245Z,1.60
2018-06-19T12:39:32.022Z,1.60
2018-06-19T12:42:06.558Z,1.23
2018-06-19T12:44:35.285Z,1.50
2018-06-19T12:47:09.965Z,1.33
2018-06-19T12:49:50.149Z,1.50
2018-06-19T12:52:30.225Z,1.57
2018-06-19T12:55:21.341Z,1.17
2018-06-19T12:57:50.321Z,1.50
2018-06-19T13:00:24.120Z,1.20
2018-06-19T13:03:04.242Z,3.70
2018-06-19T13:05:44.482Z,1.63
2018-06-19T13:08:13.266Z,1.60
2018-06-19T13:10:54.357Z,1.70
2018-06-19T13:13:36.490Z,1.70
2018-06-19T13:16:06.413Z,1.40
2018-06-19T13:18:46.557Z,1.30
2018-06-19T13:21:15.337Z,1.60
2018-06-19T13:23:44.080Z,1.50
2018-06-19T13:26:13.219Z,1.57
2018-06-19T13:29:52.586Z,1.40
2018-06-19T13:32:28.475Z,1.63
2018-06-19T13:34:58.267Z,1.40
2018-06-19T13:37:32.877Z,1.53
2018-06-19T13:41:19.647Z,1.77
2018-06-19T13:44:01.122Z,1.70
2018-06-19T13:46:29.865Z,1.70
2018-06-19T13:48:58.593Z,1.60
2018-06-19T13:51:27.289Z,1.50
2018-06-19T13:53:55.938Z,1.30
2018-06-19T13:57:35.583Z,1.30
2018-06-19T14:00:06.819Z,1.30
2018-06-19T14:02:35.523Z,1.20
2018-06-19T14:05:07.153Z,1.30
2018-06-19T14:07:42.888Z,1.43
2018-06-19T14:10:25.062Z,1.10
2018-06-19T14:13:02.641Z,1.33
2018-06-19T14:15:34.658Z,1.57
2018-06-19T14:18:03.378Z,1.10
2018-06-19T14:20:32.141Z,1.10
2018-06-19T14:23:00.888Z,1.30
2018-06-19T14:25:29.401Z,1.20
2018-06-19T14:27:58.021Z,1.50
2018-06-19T14:30:26.751Z,1.17
2018-06-19T14:32:55.601Z,1.40
2018-06-19T14:35:24.289Z,1.20
2018-06-19T14:37:53.061Z,1.27
2018-06-19T14:40:21.889Z,1.60
2018-06-19T14:42:50.665Z,1.40
2018-06-19T14:45:19.437Z,1.50
2018-06-19T14:47:48.192Z,2.13
2018-06-19T14:50:16.922Z,1.27
2018-06-19T14:52:45.679Z,1.47
2018-06-19T14:55:14.397Z,1.33
2018-06-19T14:57:43.166Z,1.30
2018-06-19T15:00:12.302Z,1.80
2018-06-19T15:02:41.094Z,1.30
2018-06-19T15:05:09.804Z,1.70
2018-06-19T15:07:43.981Z,1.57
2018-06-19T15:10:12.706Z,1.83
2018-06-19T15:12:41.425Z,1.80
2018-06-19T15:15:10.129Z,1.60
2018-06-19T15:17:45.782Z,1.80
2018-06-19T15:20:14.549Z,5.33
2018-06-19T15:22:43.338Z,5.00
2018-06-19T15:25:12.077Z,2.07
2018-06-19T15:27:40.809Z,1.50
2018-06-19T15:30:09.526Z,1.57
2018-06-19T15:32:38.270Z,1.50
2018-06-19T15:35:07.017Z,1.60
2018-06-19T15:37:35.813Z,1.53
2018-06-19T15:40:04.529Z,1.57
2018-06-19T15:42:33.242Z,1.10
2018-06-19T15:45:01.977Z,1.50
2018-06-19T15:47:30.690Z,1.20
2018-06-19T15:49:59.441Z,1.57
2018-06-19T15:52:28.151Z,1.40
2018-06-19T15:54:56.985Z,1.40
2018-06-19T15:57:25.723Z,1.37
2018-06-19T15:59:54.444Z,1.60
2018-06-19T16:02:23.189Z,1.47
2018-06-19T16:04:51.893Z,1.20
2018-06-19T16:07:20.738Z,2.10
2018-06-19T16:09:49.501Z,1.30
2018-06-19T16:12:18.225Z,1.40
2018-06-19T16:15:02.601Z,1.37
2018-06-19T16:17:31.329Z,1.60
2018-06-19T16:20:00.048Z,1.63
2018-06-19T16:22:28.877Z,1.50
2018-06-19T16:24:57.400Z,1.77
2018-06-19T16:27:42.625Z,1.83
2018-06-19T16:30:11.313Z,2.07
2018-06-19T16:32:40.150Z,1.53
2018-06-19T16:35:09.005Z,1.67
2018-06-19T16:37:43.733Z,1.77
2018-06-19T16:40:12.497Z,1.10
2018-06-19T16:42:41.370Z,1.40
2018-06-19T16:45:10.085Z,1.40
2018-06-19T16:47:39.249Z,1.50
2018-06-19T16:50:08.035Z,1.40
2018-06-19T16:52:37.141Z,1.63
2018-06-19T16:55:06.511Z,1.53
2018-06-19T16:57:35.546Z,1.57
2018-06-19T17:00:08.931Z,1.60
2018-06-19T17:02:37.709Z,1.60
2018-06-19T17:05:06.456Z,1.40
2018-06-19T17:07:35.496Z,1.80
2018-06-19T17:10:04.397Z,1.60
2018-06-19T17:12:33.109Z,1.30
2018-06-19T17:15:01.871Z,1.50
2018-06-19T17:17:30.614Z,1.40
2018-06-19T17:19:59.400Z,1.90
2018-06-19T17:22:28.148Z,1.57
2018-06-19T17:24:56.885Z,1.40
2018-06-19T17:27:25.672Z,1.40
2018-06-19T17:29:54.438Z,1.63
2018-06-19T17:32:23.200Z,1.80
2018-06-19T17:34:51.913Z,1.70
2018-06-19T17:37:20.673Z,1.70
2018-06-19T17:39:49.434Z,1.60
2018-06-19T17:42:18.149Z,1.63
2018-06-19T17:44:47.141Z,1.40
2018-06-19T17:47:16.268Z,1.40
2018-06-19T17:49:45.035Z,1.30
2018-06-19T17:52:13.826Z,1.57
2018-06-19T17:54:42.793Z,1.70
2018-06-19T17:57:11.558Z,1.80
2018-06-19T17:59:40.297Z,1.60
2018-06-19T18:02:09.106Z,1.30
2018-06-19T18:04:37.905Z,1.50
2018-06-19T18:07:06.421Z,1.60
2018-06-19T18:09:35.086Z,1.30
2018-06-19T18:12:03.826Z,1.50
2018-06-19T18:14:36.597Z,1.50
2018-06-19T18:17:05.362Z,1.50
2018-06-19T18:19:34.300Z,1.90
2018-06-19T18:22:03.283Z,1.70
2018-06-19T18:24:32.012Z,1.43
2018-06-19T18:27:05.992Z,1.63
2018-06-19T18:29:34.634Z,1.67
2018-06-19T18:32:03.384Z,2.03
2018-06-19T18:34:32.138Z,2.20
2018-06-19T18:37:00.867Z,2.00
2018-06-19T18:39:29.629Z,2.03
2018-06-19T18:41:58.391Z,1.87
2018-06-19T18:44:27.142Z,1.80
2018-06-19T18:46:55.905Z,1.80
2018-06-19T18:49:24.985Z,1.67
2018-06-19T18:51:55.396Z,2.07
2018-06-19T18:54:24.130Z,1.77
2018-06-19T18:56:55.029Z,2.07
2018-06-19T18:59:23.739Z,2.00
2018-06-19T19:01:52.490Z,2.00
2018-06-19T19:04:20.974Z,2.10
2018-06-19T19:06:49.597Z,1.70
2018-06-19T19:09:18.353Z,1.90
2018-06-19T19:11:47.145Z,1.77
2018-06-19T19:14:15.915Z,1.73
2018-06-19T19:16:51.109Z,1.70
2018-06-19T19:19:23.152Z,1.80
2018-06-19T19:21:52.309Z,2.17
2018-06-19T19:24:21.083Z,1.73
2018-06-19T19:26:55.045Z,1.80
2018-06-19T19:29:54.382Z,2.20
2018-06-19T19:32:23.160Z,2.47
2018-06-19T19:34:51.896Z,2.50
2018-06-19T19:37:25.994Z,2.13
2018-06-19T19:39:54.746Z,2.20
2018-06-19T19:42:27.577Z,2.50
2018-06-19T19:44:56.337Z,2.60
2018-06-19T19:47:30.382Z,2.47
2018-06-19T19:49:59.068Z,2.23
2018-06-19T19:52:27.797Z,2.30
2018-06-19T19:54:56.546Z,2.30
2018-06-19T19:57:30.806Z,2.20
2018-06-19T19:59:59.550Z,2.33
2018-06-19T20:02:28.272Z,2.73
2018-06-19T20:04:57.021Z,2.70
2018-06-19T20:07:25.741Z,2.30
2018-06-19T20:09:54.514Z,2.90
2018-06-19T20:12:23.302Z,2.70
2018-06-19T20:14:52.034Z,2.93
2018-06-19T20:17:20.793Z,3.20
2018-06-19T20:19:49.573Z,3.30
2018-06-19T20:22:18.348Z,2.53
2018-06-19T20:24:47.069Z,3.07
2018-06-19T20:27:15.833Z,3.10
2018-06-19T20:29:44.572Z,3.30
2018-06-19T20:32:22.445Z,2.90
2018-06-19T20:34:51.157Z,3.47
2018-06-19T20:37:23.449Z,3.43
2018-06-19T20:39:52.313Z,3.67
2018-06-19T20:42:21.025Z,3.10
2018-06-19T20:44:49.548Z,3.27
2018-06-19T20:47:18.198Z,3.60
2018-06-19T20:49:46.945Z,3.33
2018-06-19T20:52:15.712Z,3.23
2018-06-19T20:54:44.466Z,3.03
2018-06-19T20:57:13.266Z,3.37
2018-06-19T20:59:42.013Z,3.00
2018-06-19T21:02:10.752Z,3.10
2018-06-19T21:04:39.678Z,3.30
2018-06-19T21:07:08.405Z,3.73
2018-06-19T21:09:37.378Z,3.37
2018-06-19T21:12:13.919Z,3.70
2018-06-19T21:14:42.626Z,4.07
2018-06-19T21:17:11.333Z,3.57
2018-06-19T21:19:41.746Z,3.73
2018-06-19T21:22:10.478Z,3.93
2018-06-19T21:24:39.193Z,3.67
2018-06-19T21:27:08.026Z,3.87
2018-06-19T21:29:36.753Z,3.80
2018-06-19T21:32:05.521Z,4.00
2018-06-19T21:34:34.882Z,3.77
2018-06-19T21:37:03.593Z,3.50
2018-06-19T21:39:32.324Z,3.40
2018-06-19T21:42:01.242Z,4.00
2018-06-19T21:44:29.973Z,4.03
2018-06-19T21:46:58.686Z,3.93
2018-06-19T21:49:27.414Z,4.83
2018-06-19T21:51:56.153Z,3.50
2018-06-19T21:54:24.878Z,4.23
2018-06-19T21:56:53.645Z,4.27
2018-06-19T21:59:22.393Z,3.90
2018-06-19T22:01:51.158Z,3.50
2018-06-19T22:04:19.934Z,3.90
2018-06-19T22:06:48.675Z,3.80
2018-06-19T22:09:17.593Z,3.80
2018-06-19T22:11:46.374Z,3.40
2018-06-19T22:14:15.174Z,3.63
2018-06-19T22:16:43.901Z,4.73
2018-06-19T22:19:12.704Z,4.00
2018-06-19T22:21:41.224Z,4.03
2018-06-19T22:24:09.853Z,4.07
2018-06-19T22:26:38.606Z,3.53
2018-06-19T22:29:19.144Z,4.00
2018-06-19T22:31:47.968Z,4.23
2018-06-19T22:34:16.717Z,4.00
2018-06-19T22:36:45.445Z,4.27
2018-06-19T22:39:14.218Z,3.30
2018-06-19T22:41:43.021Z,3.40
2018-06-19T22:44:11.756Z,3.73
2018-06-19T22:46:40.477Z,3.60
2018-06-19T22:49:09.311Z,3.30
2018-06-19T22:51:45.604Z,4.07
2018-06-19T22:54:14.327Z,4.10
2018-06-19T22:56:43.071Z,3.43
2018-06-19T22:59:11.795Z,4.10
2018-06-19T23:01:42.080Z,4.07
2018-06-19T23:04:10.822Z,3.63
2018-06-19T23:06:39.744Z,3.90
2018-06-19T23:09:08.945Z,4.27
2018-06-19T23:11:37.922Z,3.57
2018-06-19T23:14:06.669Z,3.90
2018-06-19T23:16:35.690Z,3.70
2018-06-19T23:19:04.433Z,4.00
2018-06-19T23:21:33.182Z,3.53
2018-06-19T23:24:01.958Z,3.93
2018-06-19T23:26:30.678Z,3.70
2018-06-19T23:28:59.414Z,4.03
2018-06-19T23:31:28.145Z,4.13
2018-06-19T23:33:56.902Z,4.00
2018-06-19T23:36:25.654Z,4.10
2018-06-19T23:38:54.417Z,4.23
2018-06-19T23:41:23.213Z,4.70
2018-06-19T23:43:51.986Z,3.90
2018-06-19T23:46:20.699Z,3.57
2018-06-19T23:48:49.312Z,3.90
2018-06-19T23:51:32.561Z,4.20
2018-06-19T23:54:01.361Z,3.80
2018-06-19T23:56:30.084Z,3.43
2018-06-19T23:58:58.947Z,3.77
